sensor_id;sensor_type;location;lat;lon;timestamp;temperature;humidity
52899;DHT22;38763;53.096;6.062;2023-04-25T00:00:14;6.80;99.90
52899;DHT22;38763;53.096;6.062;2023-04-25T00:02:40;6.80;99.90
52899;DHT22;38763;53.096;6.062;2023-04-25T00:05:05;6.80;99.90
52899;DHT22;38763;53.096;6.062;2023-04-25T00:07:31;6.70;99.90
52899;DHT22;38763;53.096;6.062;2023-04-25T00:09:58;6.70;99.90
52899;DHT22;38763;53.096;6.062;2023-04-25T00:12:23;6.70;99.90
52899;DHT22;38763;53.096;6.062;2023-04-25T00:14:49;6.70;99.90
52899;DHT22;38763;53.096;6.062;2023-04-25T00:17:16;6.50;99.90
52899;DHT22;38763;53.096;6.062;2023-04-25T00:19:42;6.50;99.90
52899;DHT22;38763;53.096;6.062;2023-04-25T00:22:10;6.50;99.90
52899;DHT22;38763;53.096;6.062;2023-04-25T00:24:36;6.40;99.90
52899;DHT22;38763;53.096;6.062;2023-04-25T00:27:01;6.40;99.90
52899;DHT22;38763;53.096;6.062;2023-04-25T00:29:27;6.30;99.90
52899;DHT22;38763;53.096;6.062;2023-04-25T00:31:52;6.30;99.90
52899;DHT22;38763;53.096;6.062;2023-04-25T00:34:18;6.30;99.90
52899;DHT22;38763;53.096;6.062;2023-04-25T00:36:44;6.30;99.90
52899;DHT22;38763;53.096;6.062;2023-04-25T00:39:10;6.40;99.90
52899;DHT22;38763;53.096;6.062;2023-04-25T00:41:37;6.40;99.90
52899;DHT22;38763;53.096;6.062;2023-04-25T00:44:04;6.40;99.90
52899;DHT22;38763;53.096;6.062;2023-04-25T00:46:31;6.50;99.90
52899;DHT22;38763;53.096;6.062;2023-04-25T00:48:56;6.40;99.90
52899;DHT22;38763;53.096;6.062;2023-04-25T00:51:22;6.40;99.90
52899;DHT22;38763;53.096;6.062;2023-04-25T00:53:49;6.40;99.90
52899;DHT22;38763;53.096;6.062;2023-04-25T00:56:18;6.30;99.90
52899;DHT22;38763;53.096;6.062;2023-04-25T00:58:45;6.40;99.90
52899;DHT22;38763;53.096;6.062;2023-04-25T01:01:11;6.40;99.90
52899;DHT22;38763;53.096;6.062;2023-04-25T01:03:39;6.40;99.90
52899;DHT22;38763;53.096;6.062;2023-04-25T01:06:11;6.30;99.90
52899;DHT22;38763;53.096;6.062;2023-04-25T01:08:38;6.30;99.90
52899;DHT22;38763;53.096;6.062;2023-04-25T01:11:04;6.30;99.90
52899;DHT22;38763;53.096;6.062;2023-04-25T01:13:31;6.20;99.90
52899;DHT22;38763;53.096;6.062;2023-04-25T01:15:58;6.30;99.90
52899;DHT22;38763;53.096;6.062;2023-04-25T01:18:24;6.30;99.90
52899;DHT22;38763;53.096;6.062;2023-04-25T01:20:51;6.20;99.90
52899;DHT22;38763;53.096;6.062;2023-04-25T01:23:18;6.20;99.90
52899;DHT22;38763;53.096;6.062;2023-04-25T01:25:45;6.10;99.90
52899;DHT22;38763;53.096;6.062;2023-04-25T01:28:11;6.30;99.90
52899;DHT22;38763;53.096;6.062;2023-04-25T01:30:37;6.20;99.90
52899;DHT22;38763;53.096;6.062;2023-04-25T01:33:04;6.20;99.90
52899;DHT22;38763;53.096;6.062;2023-04-25T01:35:31;6.10;99.90
52899;DHT22;38763;53.096;6.062;2023-04-25T01:37:57;6.20;99.90
52899;DHT22;38763;53.096;6.062;2023-04-25T01:40:24;6.20;99.90
52899;DHT22;38763;53.096;6.062;2023-04-25T01:42:50;6.20;99.90
52899;DHT22;38763;53.096;6.062;2023-04-25T01:45:17;6.30;99.90
52899;DHT22;38763;53.096;6.062;2023-04-25T01:47:43;6.10;99.90
52899;DHT22;38763;53.096;6.062;2023-04-25T01:50:12;6.10;99.90
52899;DHT22;38763;53.096;6.062;2023-04-25T01:52:38;6.10;99.90
52899;DHT22;38763;53.096;6.062;2023-04-25T01:55:04;6.00;99.90
52899;DHT22;38763;53.096;6.062;2023-04-25T01:57:29;5.90;99.90
52899;DHT22;38763;53.096;6.062;2023-04-25T01:59:59;5.90;99.90
52899;DHT22;38763;53.096;6.062;2023-04-25T02:02:25;5.80;99.90
52899;DHT22;38763;53.096;6.062;2023-04-25T02:04:51;5.90;99.90
52899;DHT22;38763;53.096;6.062;2023-04-25T02:07:17;5.90;99.90
52899;DHT22;38763;53.096;6.062;2023-04-25T02:09:42;5.90;99.90
52899;DHT22;38763;53.096;6.062;2023-04-25T02:12:10;5.90;99.90
52899;DHT22;38763;53.096;6.062;2023-04-25T02:14:35;5.90;99.90
52899;DHT22;38763;53.096;6.062;2023-04-25T02:17:01;5.90;99.90
52899;DHT22;38763;53.096;6.062;2023-04-25T02:19:27;5.90;99.90
52899;DHT22;38763;53.096;6.062;2023-04-25T02:21:52;5.80;99.90
52899;DHT22;38763;53.096;6.062;2023-04-25T02:24:18;5.90;99.90
52899;DHT22;38763;53.096;6.062;2023-04-25T02:26:44;5.80;99.90
52899;DHT22;38763;53.096;6.062;2023-04-25T02:29:10;5.80;99.90
52899;DHT22;38763;53.096;6.062;2023-04-25T02:31:36;5.80;99.90
52899;DHT22;38763;53.096;6.062;2023-04-25T02:34:01;5.80;99.90
52899;DHT22;38763;53.096;6.062;2023-04-25T02:36:27;5.90;99.90
52899;DHT22;38763;53.096;6.062;2023-04-25T02:38:53;5.80;99.90
52899;DHT22;38763;53.096;6.062;2023-04-25T02:41:18;5.90;99.90
52899;DHT22;38763;53.096;6.062;2023-04-25T02:43:44;5.90;99.90
52899;DHT22;38763;53.096;6.062;2023-04-25T02:46:10;5.80;99.90
52899;DHT22;38763;53.096;6.062;2023-04-25T02:48:35;5.80;99.90
52899;DHT22;38763;53.096;6.062;2023-04-25T02:51:01;5.80;99.90
52899;DHT22;38763;53.096;6.062;2023-04-25T02:53:26;5.70;99.90
52899;DHT22;38763;53.096;6.062;2023-04-25T02:55:52;5.60;99.90
52899;DHT22;38763;53.096;6.062;2023-04-25T02:58:18;5.50;99.90
52899;DHT22;38763;53.096;6.062;2023-04-25T03:00:44;5.50;99.90
52899;DHT22;38763;53.096;6.062;2023-04-25T03:03:10;5.50;99.90
52899;DHT22;38763;53.096;6.062;2023-04-25T03:05:36;5.50;99.90
52899;DHT22;38763;53.096;6.062;2023-04-25T03:08:01;5.50;99.90
52899;DHT22;38763;53.096;6.062;2023-04-25T03:10:27;5.50;99.90
52899;DHT22;38763;53.096;6.062;2023-04-25T03:12:53;5.40;99.90
52899;DHT22;38763;53.096;6.062;2023-04-25T03:15:18;5.40;99.90
52899;DHT22;38763;53.096;6.062;2023-04-25T03:17:44;5.30;99.90
52899;DHT22;38763;53.096;6.062;2023-04-25T03:20:10;5.30;99.90
52899;DHT22;38763;53.096;6.062;2023-04-25T03:22:36;5.30;99.90
52899;DHT22;38763;53.096;6.062;2023-04-25T03:25:02;5.30;99.90
52899;DHT22;38763;53.096;6.062;2023-04-25T03:27:28;5.20;99.90
52899;DHT22;38763;53.096;6.062;2023-04-25T03:29:53;5.30;99.90
52899;DHT22;38763;53.096;6.062;2023-04-25T03:32:19;5.20;99.90
52899;DHT22;38763;53.096;6.062;2023-04-25T03:34:45;5.30;99.90
52899;DHT22;38763;53.096;6.062;2023-04-25T03:37:10;5.30;99.90
52899;DHT22;38763;53.096;6.062;2023-04-25T03:39:36;5.30;99.90
52899;DHT22;38763;53.096;6.062;2023-04-25T03:42:03;5.30;99.90
52899;DHT22;38763;53.096;6.062;2023-04-25T03:44:28;5.30;99.90
52899;DHT22;38763;53.096;6.062;2023-04-25T03:46:54;5.30;99.90
52899;DHT22;38763;53.096;6.062;2023-04-25T03:49:20;5.30;99.90
52899;DHT22;38763;53.096;6.062;2023-04-25T03:51:45;5.30;99.90
52899;DHT22;38763;53.096;6.062;2023-04-25T03:54:11;5.40;99.90
52899;DHT22;38763;53.096;6.062;2023-04-25T03:56:36;5.40;99.90
52899;DHT22;38763;53.096;6.062;2023-04-25T03:59:02;5.40;99.90
52899;DHT22;38763;53.096;6.062;2023-04-25T04:01:28;5.50;99.90
52899;DHT22;38763;53.096;6.062;2023-04-25T04:03:53;5.50;99.90
52899;DHT22;38763;53.096;6.062;2023-04-25T04:06:19;5.40;99.90
52899;DHT22;38763;53.096;6.062;2023-04-25T04:08:46;5.50;99.90
52899;DHT22;38763;53.096;6.062;2023-04-25T04:11:12;5.50;99.90
52899;DHT22;38763;53.096;6.062;2023-04-25T04:13:37;5.50;99.90
52899;DHT22;38763;53.096;6.062;2023-04-25T04:16:03;5.50;99.90
52899;DHT22;38763;53.096;6.062;2023-04-25T04:18:29;5.40;99.90
52899;DHT22;38763;53.096;6.062;2023-04-25T04:20:55;5.40;99.90
52899;DHT22;38763;53.096;6.062;2023-04-25T04:23:23;5.40;99.90
52899;DHT22;38763;53.096;6.062;2023-04-25T04:25:49;5.30;99.90
52899;DHT22;38763;53.096;6.062;2023-04-25T04:28:15;5.30;99.90
52899;DHT22;38763;53.096;6.062;2023-04-25T04:30:42;5.30;99.90
52899;DHT22;38763;53.096;6.062;2023-04-25T04:33:08;5.20;99.90
52899;DHT22;38763;53.096;6.062;2023-04-25T04:35:34;5.20;99.90
52899;DHT22;38763;53.096;6.062;2023-04-25T04:38:00;5.20;99.90
52899;DHT22;38763;53.096;6.062;2023-04-25T04:40:26;5.20;99.90
52899;DHT22;38763;53.096;6.062;2023-04-25T04:42:51;5.20;99.90
52899;DHT22;38763;53.096;6.062;2023-04-25T04:45:18;5.20;99.90
52899;DHT22;38763;53.096;6.062;2023-04-25T04:47:44;5.20;99.90
52899;DHT22;38763;53.096;6.062;2023-04-25T04:50:11;5.30;99.90
52899;DHT22;38763;53.096;6.062;2023-04-25T04:52:37;5.30;99.90
52899;DHT22;38763;53.096;6.062;2023-04-25T04:55:04;5.40;99.90
52899;DHT22;38763;53.096;6.062;2023-04-25T04:57:31;5.40;99.90
52899;DHT22;38763;53.096;6.062;2023-04-25T04:59:58;5.40;99.90
52899;DHT22;38763;53.096;6.062;2023-04-25T05:02:24;5.50;99.90
52899;DHT22;38763;53.096;6.062;2023-04-25T05:04:51;5.50;99.90
52899;DHT22;38763;53.096;6.062;2023-04-25T05:07:17;5.60;99.90
52899;DHT22;38763;53.096;6.062;2023-04-25T05:09:43;5.60;99.90
52899;DHT22;38763;53.096;6.062;2023-04-25T05:12:09;5.60;99.90
52899;DHT22;38763;53.096;6.062;2023-04-25T05:14:34;5.60;99.90
52899;DHT22;38763;53.096;6.062;2023-04-25T05:17:00;5.70;99.90
52899;DHT22;38763;53.096;6.062;2023-04-25T05:19:26;5.70;99.90
52899;DHT22;38763;53.096;6.062;2023-04-25T05:21:52;5.70;99.90
52899;DHT22;38763;53.096;6.062;2023-04-25T05:24:18;5.70;99.90
52899;DHT22;38763;53.096;6.062;2023-04-25T05:26:43;5.80;99.90
52899;DHT22;38763;53.096;6.062;2023-04-25T05:29:09;5.80;99.90
52899;DHT22;38763;53.096;6.062;2023-04-25T05:31:36;5.90;99.90
52899;DHT22;38763;53.096;6.062;2023-04-25T05:34:02;6.00;99.90
52899;DHT22;38763;53.096;6.062;2023-04-25T05:36:27;6.00;99.90
52899;DHT22;38763;53.096;6.062;2023-04-25T05:38:53;6.00;99.90
52899;DHT22;38763;53.096;6.062;2023-04-25T05:41:19;6.00;99.90
52899;DHT22;38763;53.096;6.062;2023-04-25T05:43:45;5.90;99.90
52899;DHT22;38763;53.096;6.062;2023-04-25T05:46:13;5.90;99.90
52899;DHT22;38763;53.096;6.062;2023-04-25T05:48:39;5.90;99.90
52899;DHT22;38763;53.096;6.062;2023-04-25T05:51:04;5.90;99.90
52899;DHT22;38763;53.096;6.062;2023-04-25T05:53:30;6.00;99.90
52899;DHT22;38763;53.096;6.062;2023-04-25T05:55:56;6.10;99.90
52899;DHT22;38763;53.096;6.062;2023-04-25T05:58:22;6.30;99.90
52899;DHT22;38763;53.096;6.062;2023-04-25T06:00:47;6.40;99.90
52899;DHT22;38763;53.096;6.062;2023-04-25T06:03:13;6.50;99.90
52899;DHT22;38763;53.096;6.062;2023-04-25T06:05:42;6.40;99.90
52899;DHT22;38763;53.096;6.062;2023-04-25T06:08:09;6.20;99.90
52899;DHT22;38763;53.096;6.062;2023-04-25T06:10:35;5.50;99.90
52899;DHT22;38763;53.096;6.062;2023-04-25T06:13:01;5.30;99.90
52899;DHT22;38763;53.096;6.062;2023-04-25T06:15:27;5.00;99.90
52899;DHT22;38763;53.096;6.062;2023-04-25T06:17:52;5.00;99.90
52899;DHT22;38763;53.096;6.062;2023-04-25T06:20:18;5.00;99.90
52899;DHT22;38763;53.096;6.062;2023-04-25T06:22:48;5.00;99.90
52899;DHT22;38763;53.096;6.062;2023-04-25T06:25:14;5.20;99.90
52899;DHT22;38763;53.096;6.062;2023-04-25T06:27:40;5.30;99.90
52899;DHT22;38763;53.096;6.062;2023-04-25T06:30:06;5.40;99.90
52899;DHT22;38763;53.096;6.062;2023-04-25T06:32:32;5.60;99.90
52899;DHT22;38763;53.096;6.062;2023-04-25T06:34:59;5.60;99.90
52899;DHT22;38763;53.096;6.062;2023-04-25T06:37:25;5.70;99.90
52899;DHT22;38763;53.096;6.062;2023-04-25T06:39:51;5.80;99.90
52899;DHT22;38763;53.096;6.062;2023-04-25T06:42:16;5.70;99.90
52899;DHT22;38763;53.096;6.062;2023-04-25T06:44:42;5.80;99.90
52899;DHT22;38763;53.096;6.062;2023-04-25T06:47:08;5.90;99.90
52899;DHT22;38763;53.096;6.062;2023-04-25T06:49:33;6.00;99.90
52899;DHT22;38763;53.096;6.062;2023-04-25T06:51:59;5.90;99.90
52899;DHT22;38763;53.096;6.062;2023-04-25T06:54:25;5.80;99.90
52899;DHT22;38763;53.096;6.062;2023-04-25T06:56:53;5.90;99.90
52899;DHT22;38763;53.096;6.062;2023-04-25T06:59:18;5.90;99.90
52899;DHT22;38763;53.096;6.062;2023-04-25T07:01:44;5.90;99.90
52899;DHT22;38763;53.096;6.062;2023-04-25T07:04:10;5.80;99.90
52899;DHT22;38763;53.096;6.062;2023-04-25T07:06:36;5.70;99.90
52899;DHT22;38763;53.096;6.062;2023-04-25T07:09:08;5.70;99.90
52899;DHT22;38763;53.096;6.062;2023-04-25T07:11:34;5.80;99.90
52899;DHT22;38763;53.096;6.062;2023-04-25T07:13:59;6.10;99.90
52899;DHT22;38763;53.096;6.062;2023-04-25T07:16:26;6.20;99.90
52899;DHT22;38763;53.096;6.062;2023-04-25T07:18:51;6.60;99.90
52899;DHT22;38763;53.096;6.062;2023-04-25T07:21:17;6.80;99.90
52899;DHT22;38763;53.096;6.062;2023-04-25T07:23:42;6.80;99.90
52899;DHT22;38763;53.096;6.062;2023-04-25T07:26:08;6.90;99.90
52899;DHT22;38763;53.096;6.062;2023-04-25T07:28:34;6.70;99.90
52899;DHT22;38763;53.096;6.062;2023-04-25T07:30:59;6.60;99.90
52899;DHT22;38763;53.096;6.062;2023-04-25T07:33:25;6.70;99.90
52899;DHT22;38763;53.096;6.062;2023-04-25T07:35:51;6.90;99.90
52899;DHT22;38763;53.096;6.062;2023-04-25T07:38:17;7.00;99.90
52899;DHT22;38763;53.096;6.062;2023-04-25T07:40:43;7.10;99.90
52899;DHT22;38763;53.096;6.062;2023-04-25T07:43:08;7.40;99.90
52899;DHT22;38763;53.096;6.062;2023-04-25T07:45:34;7.60;99.90
52899;DHT22;38763;53.096;6.062;2023-04-25T07:47:59;7.70;99.90
52899;DHT22;38763;53.096;6.062;2023-04-25T07:50:25;7.80;99.90
52899;DHT22;38763;53.096;6.062;2023-04-25T07:52:51;8.10;99.90
52899;DHT22;38763;53.096;6.062;2023-04-25T07:55:16;8.40;99.90
52899;DHT22;38763;53.096;6.062;2023-04-25T07:57:42;8.90;99.90
52899;DHT22;38763;53.096;6.062;2023-04-25T08:00:08;9.20;99.90
52899;DHT22;38763;53.096;6.062;2023-04-25T08:02:37;9.80;99.90
52899;DHT22;38763;53.096;6.062;2023-04-25T08:05:03;9.90;99.90
52899;DHT22;38763;53.096;6.062;2023-04-25T08:07:29;10.60;99.90
52899;DHT22;38763;53.096;6.062;2023-04-25T08:09:54;10.20;99.90
52899;DHT22;38763;53.096;6.062;2023-04-25T08:12:20;9.80;99.90
52899;DHT22;38763;53.096;6.062;2023-04-25T08:14:46;9.90;99.90
52899;DHT22;38763;53.096;6.062;2023-04-25T08:17:11;9.20;99.90
52899;DHT22;38763;53.096;6.062;2023-04-25T08:19:37;8.80;99.90
52899;DHT22;38763;53.096;6.062;2023-04-25T08:22:03;8.50;99.90
52899;DHT22;38763;53.096;6.062;2023-04-25T08:24:28;8.10;99.90
52899;DHT22;38763;53.096;6.062;2023-04-25T08:26:54;8.10;99.90
52899;DHT22;38763;53.096;6.062;2023-04-25T08:29:20;8.90;99.90
52899;DHT22;38763;53.096;6.062;2023-04-25T08:31:46;9.50;99.90
52899;DHT22;38763;53.096;6.062;2023-04-25T08:34:13;9.40;99.90
52899;DHT22;38763;53.096;6.062;2023-04-25T08:36:39;9.30;99.90
52899;DHT22;38763;53.096;6.062;2023-04-25T08:39:05;9.80;99.90
52899;DHT22;38763;53.096;6.062;2023-04-25T08:41:31;10.40;99.90
52899;DHT22;38763;53.096;6.062;2023-04-25T08:43:58;10.90;99.90
52899;DHT22;38763;53.096;6.062;2023-04-25T08:46:25;10.50;99.90
52899;DHT22;38763;53.096;6.062;2023-04-25T08:48:53;10.10;99.90
52899;DHT22;38763;53.096;6.062;2023-04-25T08:51:23;9.70;99.90
52899;DHT22;38763;53.096;6.062;2023-04-25T08:53:53;9.40;99.90
52899;DHT22;38763;53.096;6.062;2023-04-25T08:56:19;9.30;99.90
52899;DHT22;38763;53.096;6.062;2023-04-25T08:58:50;10.10;99.90
52899;DHT22;38763;53.096;6.062;2023-04-25T09:01:17;10.90;99.90
52899;DHT22;38763;53.096;6.062;2023-04-25T09:03:44;11.30;99.90
52899;DHT22;38763;53.096;6.062;2023-04-25T09:06:11;10.70;99.90
52899;DHT22;38763;53.096;6.062;2023-04-25T09:08:37;9.60;99.90
52899;DHT22;38763;53.096;6.062;2023-04-25T09:11:02;8.70;99.90
52899;DHT22;38763;53.096;6.062;2023-04-25T09:13:29;8.40;99.90
52899;DHT22;38763;53.096;6.062;2023-04-25T09:15:56;8.80;99.90
52899;DHT22;38763;53.096;6.062;2023-04-25T09:18:23;9.60;99.90
52899;DHT22;38763;53.096;6.062;2023-04-25T09:20:52;10.40;99.90
52899;DHT22;38763;53.096;6.062;2023-04-25T09:23:19;10.50;99.90
52899;DHT22;38763;53.096;6.062;2023-04-25T09:25:48;10.30;99.90
52899;DHT22;38763;53.096;6.062;2023-04-25T09:28:14;10.40;99.90
52899;DHT22;38763;53.096;6.062;2023-04-25T09:30:39;10.60;99.90
52899;DHT22;38763;53.096;6.062;2023-04-25T09:33:06;11.30;99.90
52899;DHT22;38763;53.096;6.062;2023-04-25T09:35:41;10.90;99.90
52899;DHT22;38763;53.096;6.062;2023-04-25T09:38:11;11.20;99.90
52899;DHT22;38763;53.096;6.062;2023-04-25T09:43:25;10.40;99.90
52899;DHT22;38763;53.096;6.062;2023-04-25T09:45:53;10.30;99.90
52899;DHT22;38763;53.096;6.062;2023-04-25T09:48:22;9.80;99.90
52899;DHT22;38763;53.096;6.062;2023-04-25T09:51:11;9.80;99.90
52899;DHT22;38763;53.096;6.062;2023-04-25T09:53:38;9.30;99.90
52899;DHT22;38763;53.096;6.062;2023-04-25T09:56:05;9.10;99.90
52899;DHT22;38763;53.096;6.062;2023-04-25T09:58:36;9.50;99.90
52899;DHT22;38763;53.096;6.062;2023-04-25T10:01:04;9.80;99.90
52899;DHT22;38763;53.096;6.062;2023-04-25T10:03:35;9.80;99.90
52899;DHT22;38763;53.096;6.062;2023-04-25T10:06:02;9.70;99.90
52899;DHT22;38763;53.096;6.062;2023-04-25T10:08:37;9.20;99.90
52899;DHT22;38763;53.096;6.062;2023-04-25T10:11:07;8.90;99.90
52899;DHT22;38763;53.096;6.062;2023-04-25T10:13:34;9.00;99.90
52899;DHT22;38763;53.096;6.062;2023-04-25T10:16:01;9.30;99.90
52899;DHT22;38763;53.096;6.062;2023-04-25T10:18:29;9.40;99.90
52899;DHT22;38763;53.096;6.062;2023-04-25T10:20:56;9.00;99.90
52899;DHT22;38763;53.096;6.062;2023-04-25T10:23:23;9.10;99.90
52899;DHT22;38763;53.096;6.062;2023-04-25T10:25:52;9.00;99.90
52899;DHT22;38763;53.096;6.062;2023-04-25T10:28:19;9.00;99.90
52899;DHT22;38763;53.096;6.062;2023-04-25T10:31:02;8.90;99.90
52899;DHT22;38763;53.096;6.062;2023-04-25T10:33:35;8.50;99.90
52899;DHT22;38763;53.096;6.062;2023-04-25T10:36:17;8.40;99.90
52899;DHT22;38763;53.096;6.062;2023-04-25T10:38:44;8.10;99.90
52899;DHT22;38763;53.096;6.062;2023-04-25T10:41:10;8.30;99.90
52899;DHT22;38763;53.096;6.062;2023-04-25T10:43:43;8.10;99.90
52899;DHT22;38763;53.096;6.062;2023-04-25T10:48:55;8.80;99.90
52899;DHT22;38763;53.096;6.062;2023-04-25T10:51:25;10.10;99.90
52899;DHT22;38763;53.096;6.062;2023-04-25T10:56:21;9.10;99.90
52899;DHT22;38763;53.096;6.062;2023-04-25T10:58:48;8.40;99.90
52899;DHT22;38763;53.096;6.062;2023-04-25T11:01:19;8.00;99.90
52899;DHT22;38763;53.096;6.062;2023-04-25T11:03:45;7.80;99.90
52899;DHT22;38763;53.096;6.062;2023-04-25T11:06:23;7.70;99.90
52899;DHT22;38763;53.096;6.062;2023-04-25T11:08:53;7.70;99.90
52899;DHT22;38763;53.096;6.062;2023-04-25T11:11:19;7.80;99.90
52899;DHT22;38763;53.096;6.062;2023-04-25T11:13:49;8.20;99.90
52899;DHT22;38763;53.096;6.062;2023-04-25T11:16:15;8.40;99.90
52899;DHT22;38763;53.096;6.062;2023-04-25T11:18:42;7.90;99.90
52899;DHT22;38763;53.096;6.062;2023-04-25T11:21:08;7.80;99.90
52899;DHT22;38763;53.096;6.062;2023-04-25T11:23:34;7.80;99.90
52899;DHT22;38763;53.096;6.062;2023-04-25T11:26:00;8.00;99.90
52899;DHT22;38763;53.096;6.062;2023-04-25T11:28:27;8.40;99.90
52899;DHT22;38763;53.096;6.062;2023-04-25T11:30:52;8.60;99.90
52899;DHT22;38763;53.096;6.062;2023-04-25T11:33:22;8.80;99.90
52899;DHT22;38763;53.096;6.062;2023-04-25T11:35:48;8.90;99.90
52899;DHT22;38763;53.096;6.062;2023-04-25T11:38:14;8.90;99.90
52899;DHT22;38763;53.096;6.062;2023-04-25T11:40:40;8.60;99.90
52899;DHT22;38763;53.096;6.062;2023-04-25T11:43:06;8.40;99.90
52899;DHT22;38763;53.096;6.062;2023-04-25T11:45:32;7.70;99.90
52899;DHT22;38763;53.096;6.062;2023-04-25T11:47:58;7.70;99.90
52899;DHT22;38763;53.096;6.062;2023-04-25T11:50:24;7.90;99.90
52899;DHT22;38763;53.096;6.062;2023-04-25T11:52:49;7.40;99.90
52899;DHT22;38763;53.096;6.062;2023-04-25T11:55:19;7.20;99.90
52899;DHT22;38763;53.096;6.062;2023-04-25T11:57:50;7.10;99.90
52899;DHT22;38763;53.096;6.062;2023-04-25T12:00:20;7.00;99.90
52899;DHT22;38763;53.096;6.062;2023-04-25T12:02:47;7.10;99.90
52899;DHT22;38763;53.096;6.062;2023-04-25T12:05:14;7.30;99.90
52899;DHT22;38763;53.096;6.062;2023-04-25T12:07:43;7.50;99.90
52899;DHT22;38763;53.096;6.062;2023-04-25T12:10:10;7.80;99.90
52899;DHT22;38763;53.096;6.062;2023-04-25T12:12:38;7.80;99.90
52899;DHT22;38763;53.096;6.062;2023-04-25T12:15:16;8.00;99.90
52899;DHT22;38763;53.096;6.062;2023-04-25T12:17:48;7.90;99.90
52899;DHT22;38763;53.096;6.062;2023-04-25T12:20:16;8.10;99.90
52899;DHT22;38763;53.096;6.062;2023-04-25T12:22:44;8.00;99.90
52899;DHT22;38763;53.096;6.062;2023-04-25T12:25:34;8.00;99.90
52899;DHT22;38763;53.096;6.062;2023-04-25T12:28:20;8.40;99.90
52899;DHT22;38763;53.096;6.062;2023-04-25T12:31:06;8.60;99.90
52899;DHT22;38763;53.096;6.062;2023-04-25T12:33:36;8.80;99.90
52899;DHT22;38763;53.096;6.062;2023-04-25T12:36:04;8.80;99.90
52899;DHT22;38763;53.096;6.062;2023-04-25T12:38:43;8.70;99.90
52899;DHT22;38763;53.096;6.062;2023-04-25T12:41:08;8.40;99.90
52899;DHT22;38763;53.096;6.062;2023-04-25T12:43:34;8.70;99.90
52899;DHT22;38763;53.096;6.062;2023-04-25T12:46:01;8.90;99.90
52899;DHT22;38763;53.096;6.062;2023-04-25T12:48:26;9.10;99.90
52899;DHT22;38763;53.096;6.062;2023-04-25T12:50:52;9.30;99.90
52899;DHT22;38763;53.096;6.062;2023-04-25T12:53:19;9.40;99.90
52899;DHT22;38763;53.096;6.062;2023-04-25T12:55:46;9.20;99.90
52899;DHT22;38763;53.096;6.062;2023-04-25T12:58:16;9.10;99.90
52899;DHT22;38763;53.096;6.062;2023-04-25T13:00:43;9.20;99.90
52899;DHT22;38763;53.096;6.062;2023-04-25T13:03:09;9.10;99.90
52899;DHT22;38763;53.096;6.062;2023-04-25T13:05:37;9.20;99.90
52899;DHT22;38763;53.096;6.062;2023-04-25T13:08:02;8.80;99.90
52899;DHT22;38763;53.096;6.062;2023-04-25T13:10:28;8.50;99.90
52899;DHT22;38763;53.096;6.062;2023-04-25T13:12:54;8.30;99.90
52899;DHT22;38763;53.096;6.062;2023-04-25T13:15:20;8.30;99.90
52899;DHT22;38763;53.096;6.062;2023-04-25T13:17:45;8.30;99.90
52899;DHT22;38763;53.096;6.062;2023-04-25T13:20:12;8.50;99.90
52899;DHT22;38763;53.096;6.062;2023-04-25T13:22:39;8.80;99.90
52899;DHT22;38763;53.096;6.062;2023-04-25T13:25:06;9.00;99.90
52899;DHT22;38763;53.096;6.062;2023-04-25T13:27:33;9.10;99.90
52899;DHT22;38763;53.096;6.062;2023-04-25T13:30:06;9.20;99.90
52899;DHT22;38763;53.096;6.062;2023-04-25T13:32:35;9.20;99.90
52899;DHT22;38763;53.096;6.062;2023-04-25T13:35:05;9.10;99.90
52899;DHT22;38763;53.096;6.062;2023-04-25T13:37:31;9.10;99.90
52899;DHT22;38763;53.096;6.062;2023-04-25T13:40:01;9.30;99.90
52899;DHT22;38763;53.096;6.062;2023-04-25T13:42:29;9.40;99.90
52899;DHT22;38763;53.096;6.062;2023-04-25T13:44:55;9.60;99.90
52899;DHT22;38763;53.096;6.062;2023-04-25T13:47:22;9.80;99.90
52899;DHT22;38763;53.096;6.062;2023-04-25T13:49:49;9.40;99.90
52899;DHT22;38763;53.096;6.062;2023-04-25T13:52:14;9.10;99.90
52899;DHT22;38763;53.096;6.062;2023-04-25T13:54:40;9.00;99.90
52899;DHT22;38763;53.096;6.062;2023-04-25T13:57:06;9.00;99.90
52899;DHT22;38763;53.096;6.062;2023-04-25T13:59:32;8.90;99.90
52899;DHT22;38763;53.096;6.062;2023-04-25T14:01:58;8.70;99.90
52899;DHT22;38763;53.096;6.062;2023-04-25T14:04:23;8.80;99.90
52899;DHT22;38763;53.096;6.062;2023-04-25T14:06:50;9.10;99.90
52899;DHT22;38763;53.096;6.062;2023-04-25T14:09:17;9.20;99.90
52899;DHT22;38763;53.096;6.062;2023-04-25T14:11:42;9.40;99.90
52899;DHT22;38763;53.096;6.062;2023-04-25T14:14:08;9.40;99.90
52899;DHT22;38763;53.096;6.062;2023-04-25T14:16:34;9.30;99.90
52899;DHT22;38763;53.096;6.062;2023-04-25T14:19:01;9.10;99.90
52899;DHT22;38763;53.096;6.062;2023-04-25T14:21:27;8.90;99.90
52899;DHT22;38763;53.096;6.062;2023-04-25T14:23:53;8.90;99.90
52899;DHT22;38763;53.096;6.062;2023-04-25T14:26:19;9.00;99.90
52899;DHT22;38763;53.096;6.062;2023-04-25T14:28:45;9.00;99.90
52899;DHT22;38763;53.096;6.062;2023-04-25T14:31:11;8.70;99.90
52899;DHT22;38763;53.096;6.062;2023-04-25T14:33:37;8.60;99.90
52899;DHT22;38763;53.096;6.062;2023-04-25T14:36:05;8.50;99.90
52899;DHT22;38763;53.096;6.062;2023-04-25T14:38:31;8.40;99.90
52899;DHT22;38763;53.096;6.062;2023-04-25T14:40:56;8.60;99.90
52899;DHT22;38763;53.096;6.062;2023-04-25T14:43:22;8.80;99.90
52899;DHT22;38763;53.096;6.062;2023-04-25T14:45:47;8.90;99.90
52899;DHT22;38763;53.096;6.062;2023-04-25T14:48:13;8.90;99.90
52899;DHT22;38763;53.096;6.062;2023-04-25T14:50:39;9.10;99.90
52899;DHT22;38763;53.096;6.062;2023-04-25T14:53:04;9.00;99.90
52899;DHT22;38763;53.096;6.062;2023-04-25T14:55:31;8.70;99.90
52899;DHT22;38763;53.096;6.062;2023-04-25T14:57:56;8.80;99.90
52899;DHT22;38763;53.096;6.062;2023-04-25T15:00:22;8.90;99.90
52899;DHT22;38763;53.096;6.062;2023-04-25T15:02:51;8.80;99.90
52899;DHT22;38763;53.096;6.062;2023-04-25T15:05:17;8.70;99.90
52899;DHT22;38763;53.096;6.062;2023-04-25T15:07:43;8.60;99.90
52899;DHT22;38763;53.096;6.062;2023-04-25T15:10:09;8.60;99.90
52899;DHT22;38763;53.096;6.062;2023-04-25T15:12:45;8.70;99.90
52899;DHT22;38763;53.096;6.062;2023-04-25T15:15:11;8.60;99.90
52899;DHT22;38763;53.096;6.062;2023-04-25T15:17:38;8.50;99.90
52899;DHT22;38763;53.096;6.062;2023-04-25T15:20:05;8.60;99.90
52899;DHT22;38763;53.096;6.062;2023-04-25T15:22:31;8.70;99.90
52899;DHT22;38763;53.096;6.062;2023-04-25T15:24:57;8.60;99.90
52899;DHT22;38763;53.096;6.062;2023-04-25T15:27:23;8.70;99.90
52899;DHT22;38763;53.096;6.062;2023-04-25T15:29:48;8.40;99.90
52899;DHT22;38763;53.096;6.062;2023-04-25T15:32:14;8.30;99.90
52899;DHT22;38763;53.096;6.062;2023-04-25T15:34:40;8.30;99.90
52899;DHT22;38763;53.096;6.062;2023-04-25T15:37:06;8.40;99.90
52899;DHT22;38763;53.096;6.062;2023-04-25T15:39:31;8.50;99.90
52899;DHT22;38763;53.096;6.062;2023-04-25T15:41:57;8.60;99.90
52899;DHT22;38763;53.096;6.062;2023-04-25T15:44:24;8.70;99.90
52899;DHT22;38763;53.096;6.062;2023-04-25T15:46:49;8.50;99.90
52899;DHT22;38763;53.096;6.062;2023-04-25T15:49:15;8.40;99.90